sensor_id;sensor_type;location;lat;lon;timestamp;temperature;humidity
19496;DHT22;9888;48.606;9.630;2023-08-07T00:00:05;9.30;99.90
19496;DHT22;9888;48.606;9.630;2023-08-07T00:02:36;9.30;99.90
19496;DHT22;9888;48.606;9.630;2023-08-07T00:05:05;9.30;99.90
19496;DHT22;9888;48.606;9.630;2023-08-07T00:07:37;9.30;99.90
19496;DHT22;9888;48.606;9.630;2023-08-07T00:10:05;9.30;99.90
19496;DHT22;9888;48.606;9.630;2023-08-07T00:12:34;9.30;99.90
19496;DHT22;9888;48.606;9.630;2023-08-07T00:15:09;9.30;99.90
19496;DHT22;9888;48.606;9.630;2023-08-07T00:17:38;9.30;99.90
19496;DHT22;9888;48.606;9.630;2023-08-07T00:20:06;9.30;99.90
19496;DHT22;9888;48.606;9.630;2023-08-07T00:22:34;9.20;99.90
19496;DHT22;9888;48.606;9.630;2023-08-07T00:25:03;9.20;99.90
19496;DHT22;9888;48.606;9.630;2023-08-07T00:27:30;9.20;99.90
19496;DHT22;9888;48.606;9.630;2023-08-07T00:29:58;9.20;99.90
19496;DHT22;9888;48.606;9.630;2023-08-07T00:32:26;9.30;99.90
19496;DHT22;9888;48.606;9.630;2023-08-07T00:34:55;9.30;99.90
19496;DHT22;9888;48.606;9.630;2023-08-07T00:37:23;9.30;99.90
19496;DHT22;9888;48.606;9.630;2023-08-07T00:39:51;9.30;99.90
19496;DHT22;9888;48.606;9.630;2023-08-07T00:42:18;9.30;99.90
19496;DHT22;9888;48.606;9.630;2023-08-07T00:44:47;9.40;99.90
19496;DHT22;9888;48.606;9.630;2023-08-07T00:47:15;9.40;99.90
19496;DHT22;9888;48.606;9.630;2023-08-07T00:49:44;9.40;99.90
19496;DHT22;9888;48.606;9.630;2023-08-07T00:52:11;9.40;99.90
19496;DHT22;9888;48.606;9.630;2023-08-07T00:54:39;9.50;99.90
19496;DHT22;9888;48.606;9.630;2023-08-07T00:57:12;9.50;99.90
19496;DHT22;9888;48.606;9.630;2023-08-07T00:59:42;9.50;99.90
19496;DHT22;9888;48.606;9.630;2023-08-07T01:02:10;9.60;99.90
19496;DHT22;9888;48.606;9.630;2023-08-07T01:04:40;9.60;99.90
19496;DHT22;9888;48.606;9.630;2023-08-07T01:07:08;9.60;99.90
19496;DHT22;9888;48.606;9.630;2023-08-07T01:09:35;9.60;99.90
19496;DHT22;9888;48.606;9.630;2023-08-07T01:12:15;9.60;99.90
19496;DHT22;9888;48.606;9.630;2023-08-07T01:15:20;9.60;99.90
19496;DHT22;9888;48.606;9.630;2023-08-07T01:21:18;9.60;99.90
19496;DHT22;9888;48.606;9.630;2023-08-07T01:23:50;9.60;99.90
19496;DHT22;9888;48.606;9.630;2023-08-07T01:26:19;9.60;99.90
19496;DHT22;9888;48.606;9.630;2023-08-07T01:28:57;9.70;99.90
19496;DHT22;9888;48.606;9.630;2023-08-07T01:31:30;9.60;99.90
19496;DHT22;9888;48.606;9.630;2023-08-07T01:34:04;9.60;99.90
19496;DHT22;9888;48.606;9.630;2023-08-07T01:39:39;9.70;99.90
19496;DHT22;9888;48.606;9.630;2023-08-07T01:42:07;9.70;99.90
19496;DHT22;9888;48.606;9.630;2023-08-07T01:44:38;9.70;99.90
19496;DHT22;9888;48.606;9.630;2023-08-07T01:47:07;9.70;99.90
19496;DHT22;9888;48.606;9.630;2023-08-07T01:49:36;9.70;99.90
19496;DHT22;9888;48.606;9.630;2023-08-07T01:52:05;9.70;99.90
19496;DHT22;9888;48.606;9.630;2023-08-07T01:54:33;9.70;99.90
19496;DHT22;9888;48.606;9.630;2023-08-07T01:57:00;9.70;99.90
19496;DHT22;9888;48.606;9.630;2023-08-07T01:59:30;9.70;99.90
19496;DHT22;9888;48.606;9.630;2023-08-07T02:01:58;9.70;99.90
19496;DHT22;9888;48.606;9.630;2023-08-07T02:04:26;9.70;99.90
19496;DHT22;9888;48.606;9.630;2023-08-07T02:06:54;9.70;99.90
19496;DHT22;9888;48.606;9.630;2023-08-07T02:09:23;9.80;99.90
19496;DHT22;9888;48.606;9.630;2023-08-07T02:11:55;9.80;99.90
19496;DHT22;9888;48.606;9.630;2023-08-07T02:14:23;9.80;99.90
19496;DHT22;9888;48.606;9.630;2023-08-07T02:16:51;9.80;99.90
19496;DHT22;9888;48.606;9.630;2023-08-07T02:19:21;9.80;99.90
19496;DHT22;9888;48.606;9.630;2023-08-07T02:21:49;9.80;99.90
19496;DHT22;9888;48.606;9.630;2023-08-07T02:24:16;9.80;99.90
19496;DHT22;9888;48.606;9.630;2023-08-07T02:26:47;9.80;99.90
19496;DHT22;9888;48.606;9.630;2023-08-07T02:29:15;9.80;99.90
19496;DHT22;9888;48.606;9.630;2023-08-07T02:31:42;9.80;99.90
19496;DHT22;9888;48.606;9.630;2023-08-07T02:34:10;9.70;99.90
19496;DHT22;9888;48.606;9.630;2023-08-07T02:37:00;9.80;99.90
19496;DHT22;9888;48.606;9.630;2023-08-07T02:39:28;9.70;99.90
19496;DHT22;9888;48.606;9.630;2023-08-07T02:41:55;9.70;99.90
19496;DHT22;9888;48.606;9.630;2023-08-07T02:44:24;9.70;99.90
19496;DHT22;9888;48.606;9.630;2023-08-07T02:46:53;9.70;99.90
19496;DHT22;9888;48.606;9.630;2023-08-07T02:49:23;9.70;99.90
19496;DHT22;9888;48.606;9.630;2023-08-07T02:51:50;9.70;99.90
19496;DHT22;9888;48.606;9.630;2023-08-07T02:54:20;9.70;99.90
19496;DHT22;9888;48.606;9.630;2023-08-07T02:56:47;9.70;99.90
19496;DHT22;9888;48.606;9.630;2023-08-07T02:59:18;9.70;99.90
19496;DHT22;9888;48.606;9.630;2023-08-07T03:01:46;9.60;99.90
19496;DHT22;9888;48.606;9.630;2023-08-07T03:04:14;9.70;99.90
19496;DHT22;9888;48.606;9.630;2023-08-07T03:06:41;9.70;99.90
19496;DHT22;9888;48.606;9.630;2023-08-07T03:09:09;9.70;99.90
19496;DHT22;9888;48.606;9.630;2023-08-07T03:11:39;9.70;99.90
19496;DHT22;9888;48.606;9.630;2023-08-07T03:14:07;9.70;99.90
19496;DHT22;9888;48.606;9.630;2023-08-07T03:16:35;9.70;99.90
19496;DHT22;9888;48.606;9.630;2023-08-07T03:19:02;9.60;99.90
19496;DHT22;9888;48.606;9.630;2023-08-07T03:21:29;9.70;99.90
19496;DHT22;9888;48.606;9.630;2023-08-07T03:23:57;9.60;99.90
19496;DHT22;9888;48.606;9.630;2023-08-07T03:26:25;9.60;99.90
19496;DHT22;9888;48.606;9.630;2023-08-07T03:28:52;9.60;99.90
19496;DHT22;9888;48.606;9.630;2023-08-07T03:31:20;9.50;99.90
19496;DHT22;9888;48.606;9.630;2023-08-07T03:33:48;9.50;99.90
19496;DHT22;9888;48.606;9.630;2023-08-07T03:36:15;9.50;99.90
19496;DHT22;9888;48.606;9.630;2023-08-07T03:38:43;9.60;99.90
19496;DHT22;9888;48.606;9.630;2023-08-07T03:41:10;9.60;99.90
19496;DHT22;9888;48.606;9.630;2023-08-07T03:43:37;9.60;99.90
19496;DHT22;9888;48.606;9.630;2023-08-07T03:46:06;9.60;99.90
19496;DHT22;9888;48.606;9.630;2023-08-07T03:48:36;9.60;99.90
19496;DHT22;9888;48.606;9.630;2023-08-07T03:51:08;9.50;99.90
19496;DHT22;9888;48.606;9.630;2023-08-07T03:53:38;9.50;99.90
19496;DHT22;9888;48.606;9.630;2023-08-07T03:56:05;9.50;99.90
19496;DHT22;9888;48.606;9.630;2023-08-07T03:58:33;9.60;99.90
19496;DHT22;9888;48.606;9.630;2023-08-07T04:01:00;9.60;99.90
19496;DHT22;9888;48.606;9.630;2023-08-07T04:03:29;9.70;99.90
19496;DHT22;9888;48.606;9.630;2023-08-07T04:05:57;9.70;99.90
19496;DHT22;9888;48.606;9.630;2023-08-07T04:08:27;9.70;99.90
19496;DHT22;9888;48.606;9.630;2023-08-07T04:11:06;9.70;99.90
19496;DHT22;9888;48.606;9.630;2023-08-07T04:13:37;9.60;99.90
19496;DHT22;9888;48.606;9.630;2023-08-07T04:16:05;9.60;99.90
19496;DHT22;9888;48.606;9.630;2023-08-07T04:18:33;9.60;99.90
19496;DHT22;9888;48.606;9.630;2023-08-07T04:21:02;9.60;99.90
19496;DHT22;9888;48.606;9.630;2023-08-07T04:23:29;9.60;99.90
19496;DHT22;9888;48.606;9.630;2023-08-07T04:25:57;9.60;99.90
19496;DHT22;9888;48.606;9.630;2023-08-07T04:28:28;9.60;99.90
19496;DHT22;9888;48.606;9.630;2023-08-07T04:30:57;9.60;99.90
19496;DHT22;9888;48.606;9.630;2023-08-07T04:33:26;9.60;99.90
19496;DHT22;9888;48.606;9.630;2023-08-07T04:35:53;9.60;99.90
19496;DHT22;9888;48.606;9.630;2023-08-07T04:38:21;9.70;99.90
19496;DHT22;9888;48.606;9.630;2023-08-07T04:40:49;9.70;99.90
19496;DHT22;9888;48.606;9.630;2023-08-07T04:43:18;9.70;99.90
19496;DHT22;9888;48.606;9.630;2023-08-07T04:45:49;9.80;99.90
19496;DHT22;9888;48.606;9.630;2023-08-07T04:48:17;9.70;99.90
19496;DHT22;9888;48.606;9.630;2023-08-07T04:50:45;9.70;99.90
19496;DHT22;9888;48.606;9.630;2023-08-07T04:53:13;9.70;99.90
19496;DHT22;9888;48.606;9.630;2023-08-07T04:55:41;9.70;99.90
19496;DHT22;9888;48.606;9.630;2023-08-07T04:58:10;9.80;99.90
19496;DHT22;9888;48.606;9.630;2023-08-07T05:00:39;9.80;99.90
19496;DHT22;9888;48.606;9.630;2023-08-07T05:03:07;9.80;99.90
19496;DHT22;9888;48.606;9.630;2023-08-07T05:05:35;9.90;99.90
19496;DHT22;9888;48.606;9.630;2023-08-07T05:08:04;9.90;99.90
19496;DHT22;9888;48.606;9.630;2023-08-07T05:10:31;9.90;99.90
19496;DHT22;9888;48.606;9.630;2023-08-07T05:12:59;10.00;99.90
19496;DHT22;9888;48.606;9.630;2023-08-07T05:15:26;10.00;99.90
19496;DHT22;9888;48.606;9.630;2023-08-07T05:18:00;10.00;99.90
19496;DHT22;9888;48.606;9.630;2023-08-07T05:20:28;10.10;99.90
19496;DHT22;9888;48.606;9.630;2023-08-07T05:22:56;10.10;99.90
19496;DHT22;9888;48.606;9.630;2023-08-07T05:25:23;10.10;99.90
19496;DHT22;9888;48.606;9.630;2023-08-07T05:27:53;10.10;99.90
19496;DHT22;9888;48.606;9.630;2023-08-07T05:30:21;10.10;99.90
19496;DHT22;9888;48.606;9.630;2023-08-07T22:13:51;8.90;99.90
19496;DHT22;9888;48.606;9.630;2023-08-07T22:26:24;8.60;99.90
19496;DHT22;9888;48.606;9.630;2023-08-07T22:28:52;8.60;99.90
19496;DHT22;9888;48.606;9.630;2023-08-07T22:31:20;8.50;99.90
19496;DHT22;9888;48.606;9.630;2023-08-07T22:37:06;8.40;99.90
19496;DHT22;9888;48.606;9.630;2023-08-07T22:39:43;8.40;99.90
19496;DHT22;9888;48.606;9.630;2023-08-07T22:45:35;8.40;99.90
19496;DHT22;9888;48.606;9.630;2023-08-07T22:48:02;8.50;99.90
19496;DHT22;9888;48.606;9.630;2023-08-07T22:50:49;8.40;99.90
19496;DHT22;9888;48.606;9.630;2023-08-07T22:53:19;8.40;99.90
19496;DHT22;9888;48.606;9.630;2023-08-07T22:55:49;8.40;99.90
19496;DHT22;9888;48.606;9.630;2023-08-07T22:58:18;8.30;99.90
